Latest Weather Observations for Keith West

IDS60801

Issued at 10:35 pm CST Wednesday 30 July 2014 (issued every 30 minutes, with the page automatically refreshed every 10 minutes)

About weather observations | Map of weather stations | Latest weather observations for SA | Other Formats
Station Details ID: 025557 Name: MUNKORA Lat: -36.11 Lon: 140.33 Height: 27.0 m
Data from the previous 72 hours. | See also: Recent months for locations in South Australia
Date/Time
CST
Temp
°C
App
Temp
°C
Dew
Point
Rel
Hum
%
Delta-T
°C
Wind Press
QNH
hPa
Press
MSL
hPa
Rain
since 9 am
mm
Dir
 
Spd
km/h
Gust
km/h
Spd
kts
Gust
kts
30/10:30pm 14.2 9.7 10.0 76 2.2 N 24 33 13 18 1010.4 1010.4 0.0
30/10:00pm 14.3 9.4 10.1 76 2.2 NNW 26 35 14 19 1010.9 - 0.0
30/09:30pm 14.2 9.0 10.4 78 2.0 NNW 28 35 15 19 1011.4 1011.4 0.0
30/09:00pm 14.0 9.7 10.8 81 1.7 N 24 32 13 17 1011.9 1011.9 0.0
30/08:30pm 14.1 9.8 10.9 81 1.7 NNW 24 32 13 17 1012.3 1012.3 0.0
30/08:00pm 14.2 10.0 11.0 81 1.7 NNW 24 32 13 17 1012.6 - 0.0
30/07:30pm 14.2 10.2 10.6 79 1.9 NNW 22 28 12 15 1012.8 1012.8 0.0
30/07:00pm 14.4 9.6 10.4 77 2.1 NW 26 33 14 18 1012.8 - 0.0
30/06:30pm 14.8 10.0 10.4 75 2.3 NW 26 39 14 21 1012.7 1012.7 0.0
30/06:00pm 14.7 9.9 10.3 75 2.3 NNW 26 33 14 18 1012.5 1012.5 0.0
30/05:30pm 14.8 10.8 10.6 76 2.2 NNW 22 28 12 15 1012.4 1012.4 0.0
30/05:00pm 15.1 10.7 10.5 74 2.4 NW 24 33 13 18 1012.5 - 0.0
30/04:30pm 15.7 11.0 10.5 71 2.8 NW 26 35 14 19 1012.5 1012.5 0.0
30/04:00pm 16.1 10.4 9.8 66 3.3 NW 30 41 16 22 1012.5 - 0.0
30/03:30pm 16.4 11.0 9.6 64 3.5 WNW 28 39 15 21 1012.8 1012.8 0.0
30/03:00pm 16.5 9.8 9.7 64 3.6 WNW 35 50 19 27 1012.9 1012.9 0.0
30/02:30pm 16.6 10.5 10.5 67 3.2 WNW 33 44 18 24 1013.2 1013.2 0.0
30/02:01pm 16.8 10.9 10.4 66 3.4 WNW 32 54 17 29 1013.3 - 0.0
30/02:00pm 16.6 10.8 10.7 68 3.1 WNW 32 44 17 24 1013.4 - 0.0
30/01:43pm 16.6 8.9 10.0 65 3.5 WNW 41 65 22 35 1013.2 - 0.0
30/01:30pm 16.4 9.2 10.5 68 3.1 WNW 39 52 21 28 1013.5 1013.5 0.0
30/01:00pm 16.3 10.0 11.2 72 2.7 NW 35 46 19 25 1013.8 - 0.0
30/12:30pm 15.8 10.7 11.8 77 2.2 NW 30 37 16 20 1014.2 1014.2 0.0
30/12:00pm 15.7 10.6 11.9 78 2.1 NW 30 39 16 21 1014.7 1014.7 0.0
30/11:30am 15.7 10.0 11.7 77 2.2 NW 33 43 18 23 1015.2 1015.2 0.0
30/11:00am 15.8 10.7 11.8 77 2.2 NW 30 41 16 22 1015.5 - 0.0
30/10:30am 16.1 10.4 11.9 76 2.3 NW 33 43 18 23 1015.7 1015.7 0.0
30/10:00am 15.6 10.1 11.8 78 2.1 NW 32 46 17 25 1015.7 - 0.0
30/09:30am 14.9 9.4 11.7 81 1.7 NW 32 43 17 23 1015.8 1015.8 0.0
30/09:00am 14.4 9.1 11.4 82 1.6 NW 30 37 16 20 1015.8 1015.8 0.8
30/08:30am 13.8 8.5 11.1 84 1.4 NW 30 41 16 22 1015.5 1015.5 0.8
30/08:00am 12.9 8.2 10.8 87 1.1 NW 26 35 14 19 1015.4 - 0.8
30/07:30am 13.2 7.8 10.9 86 1.2 NW 30 37 16 20 1015.2 1015.2 0.8
30/07:00am 12.8 7.2 10.3 85 1.3 NW 30 37 16 20 1014.9 - 0.8
30/06:30am 13.0 8.7 10.9 87 1.1 NW 24 33 13 18 1014.8 1014.8 0.8
30/06:00am 12.9 8.6 10.8 87 1.1 NW 24 32 13 17 1014.6 1014.6 0.8
30/05:30am 12.8 9.0 11.0 89 0.9 NW 22 30 12 16 1014.3 1014.3 0.8
30/05:00am 12.8 10.0 11.2 90 0.8 NW 17 22 9 12 1014.3 - 0.8
30/04:30am 12.7 9.9 11.4 92 0.7 NW 17 22 9 12 1014.4 1014.4 0.8
30/04:00am 12.4 9.5 11.1 92 0.7 NW 17 22 9 12 1014.5 - 0.8
30/03:30am 11.9 8.9 10.6 92 0.7 NW 17 20 9 11 1014.6 1014.6 0.8
30/03:00am 12.1 9.1 10.8 92 0.7 NW 17 20 9 11 1014.8 1014.8 0.8
30/02:30am 12.6 10.2 11.5 93 0.6 WNW 15 20 8 11 1015.0 1015.0 0.8
30/02:00am 12.7 9.4 11.6 93 0.6 WNW 20 32 11 17 1015.3 - 0.8
30/01:30am 12.9 8.8 11.5 91 0.7 NW 24 32 13 17 1015.5 1015.5 0.4
30/01:00am 13.0 9.8 11.4 90 0.8 NW 19 26 10 14 1015.5 - 0.4
30/12:30am 13.1 9.1 11.7 91 0.7 NW 24 33 13 18 1015.5 1015.5 0.4
30/12:00am 12.8 9.0 11.2 90 0.8 NW 22 30 12 16 1015.6 1015.6 0.4
 
Date/Time
CST
Temp
°C
App
Temp
°C
Dew
Point
Rel
Hum
%
Delta-T
°C
Wind Press
QNH
hPa
Press
MSL
hPa
Rain
since 9 am
mm
Dir
 
Spd
km/h
Gust
km/h
Spd
kts
Gust
kts
29/11:30pm 13.0 9.2 11.2 89 0.9 NW 22 28 12 15 1015.8 1015.8 0.4
29/11:00pm 12.9 8.7 11.0 88 1.0 NW 24 30 13 16 1015.6 - 0.4
29/10:30pm 13.3 9.6 11.4 88 1.0 NW 22 26 12 14 1015.6 1015.6 0.4
29/10:00pm 13.4 8.6 11.5 88 1.0 NW 28 35 15 19 1015.3 - 0.4
29/09:30pm 13.4 9.3 11.6 89 1.0 NW 24 33 13 18 1015.1 1015.1 0.4
29/09:00pm 13.0 9.3 11.4 90 0.8 NW 22 32 12 17 1015.0 1015.0 0.4
29/08:30pm 13.2 9.5 11.4 89 1.0 NW 22 32 12 17 1014.8 1014.8 0.4
29/08:00pm 13.4 9.8 11.8 90 0.9 NNW 22 28 12 15 1014.5 - 0.4
29/07:30pm 13.6 9.6 11.7 88 1.0 NW 24 32 13 17 1014.6 1014.6 0.4
29/07:00pm 13.5 9.9 11.7 89 1.0 NW 22 30 12 16 1014.3 - 0.4
29/06:30pm 13.5 9.5 11.9 90 0.9 NW 24 33 13 18 1014.3 1014.3 0.4
29/06:00pm 14.3 9.2 12.0 86 1.2 NW 30 41 16 22 1014.0 1014.0 0.4
29/05:30pm 14.4 10.4 11.9 85 1.3 NW 24 32 13 17 1013.8 1013.8 0.4
29/05:00pm 14.4 10.1 11.9 85 1.3 WNW 26 33 14 18 1013.6 - 0.4
29/04:30pm 14.8 9.7 11.8 82 1.6 WNW 30 41 16 22 1013.5 1013.5 0.2
29/04:00pm 14.9 9.4 11.9 82 1.6 WNW 32 44 17 24 1013.1 - 0.2
29/03:30pm 15.6 9.4 11.4 76 2.3 WNW 35 54 19 29 1012.9 1012.9 0.2
29/03:27pm 15.7 9.9 11.5 76 2.3 WNW 33 54 18 29 1012.8 - 0.2
29/03:00pm 15.8 10.0 11.4 75 2.4 WNW 33 50 18 27 1012.5 1012.5 0.2
29/02:30pm 15.9 9.7 11.5 75 2.4 WNW 35 48 19 26 1012.5 1012.5 0.2
29/02:00pm 15.7 10.2 11.7 77 2.2 WNW 32 44 17 24 1012.4 - 0.2
29/01:33pm 15.6 9.9 11.8 78 2.1 WNW 33 54 18 29 1012.3 - 0.2
29/01:30pm 15.6 10.5 12.0 79 2.0 WNW 30 43 16 23 1012.3 1012.3 0.2
29/01:00pm 14.8 9.9 12.5 86 1.3 NW 30 39 16 21 1012.4 - 0.0
29/12:30pm 14.3 6.8 12.0 86 1.2 WNW 43 67 23 36 1012.9 1012.9 0.0
29/12:25pm 15.2 9.6 12.0 81 1.7 WNW 33 56 18 30 1012.7 - 0.0
29/12:00pm 15.8 10.9 12.7 82 1.7 NW 30 41 16 22 1012.9 1012.9 0.0
29/11:30am 14.6 9.2 12.1 85 1.4 NW 32 44 17 24 1013.2 1013.2 0.0
29/11:00am 14.8 10.5 11.9 83 1.6 NW 26 33 14 18 1013.3 - 0.0
29/10:30am 13.6 8.9 10.6 82 1.6 NNW 26 35 14 19 1013.4 1013.4 0.0
29/10:00am 13.5 7.6 10.3 81 1.7 NW 32 41 17 22 1013.3 - 0.0
29/09:30am 13.4 7.8 10.0 80 1.8 NNW 30 37 16 20 1013.1 1013.1 0.0
29/09:00am 12.0 5.9 9.7 86 1.2 NNW 32 39 17 21 1012.8 1012.8 0.0
29/08:30am 12.1 6.6 9.3 83 1.4 NNW 28 37 15 20 1012.9 1012.9 0.0
29/08:00am 11.9 6.8 9.1 83 1.4 NNW 26 37 14 20 1012.7 - 0.0
29/07:30am 11.1 5.8 8.5 84 1.3 NNW 26 37 14 20 1012.6 1012.6 0.0
29/07:00am 11.2 5.9 8.4 83 1.4 NNW 26 32 14 17 1012.6 - 0.0
29/06:30am 11.2 6.2 8.2 82 1.5 NNW 24 32 13 17 1012.4 1012.4 0.0
29/06:00am 11.2 5.1 8.1 81 1.5 NNW 30 41 16 22 1012.2 1012.2 0.0
29/05:30am 11.3 5.5 7.8 79 1.7 NNW 28 35 15 19 1012.2 1012.2 0.0
29/05:00am 10.9 5.8 7.6 80 1.6 NNW 24 33 13 18 1012.1 - 0.0
29/04:30am 10.4 5.5 6.9 79 1.7 NNW 22 30 12 16 1012.2 1012.2 0.0
29/04:00am 9.9 5.3 6.6 80 1.5 NNW 20 26 11 14 1011.9 - 0.0
29/03:30am 9.9 5.5 6.6 80 1.5 NNW 19 24 10 13 1012.4 1012.4 0.0
29/03:00am 9.9 4.9 6.6 80 1.5 N 22 28 12 15 1011.8 1011.8 0.0
29/02:30am 9.7 5.4 6.8 82 1.4 NNW 19 24 10 13 1012.4 1012.4 0.0
29/02:00am 9.9 5.6 7.0 82 1.4 NNW 19 22 10 12 1012.6 - 0.0
29/01:30am 10.0 5.7 6.9 81 1.5 NNW 19 26 10 14 1012.8 1012.8 0.0
29/01:00am 10.2 5.7 7.1 81 1.5 N 20 26 11 14 1012.8 - 0.0
29/12:30am 10.3 6.1 7.4 82 1.4 NNW 19 22 10 12 1013.4 1013.4 0.0
29/12:00am 10.0 5.8 7.6 85 1.1 N 19 22 10 12 1013.8 1013.8 0.0
 
Date/Time
CST
Temp
°C
App
Temp
°C
Dew
Point
Rel
Hum
%
Delta-T
°C
Wind Press
QNH
hPa
Press
MSL
hPa
Rain
since 9 am
mm
Dir
 
Spd
km/h
Gust
km/h
Spd
kts
Gust
kts
28/11:30pm 10.0 5.8 7.6 85 1.1 NNW 19 22 10 12 1014.0 1014.0 0.0
28/11:00pm 10.0 5.8 7.6 85 1.1 N 19 22 10 12 1014.2 - 0.0
28/10:30pm 10.2 6.5 7.8 85 1.2 N 17 20 9 11 1014.3 1014.3 0.0
28/10:00pm 10.2 6.5 8.0 86 1.1 N 17 20 9 11 1014.5 - 0.0
28/09:30pm 10.3 7.0 8.1 86 1.1 N 15 19 8 10 1014.8 1014.8 0.0
28/09:00pm 10.9 7.3 8.3 84 1.3 NNW 17 20 9 11 1014.8 1014.8 0.0
28/08:30pm 10.8 7.2 8.2 84 1.3 NW 17 20 9 11 1014.9 1014.9 0.0
28/08:00pm 11.4 7.8 8.4 82 1.5 NW 17 24 9 13 1014.9 - 0.0
28/07:30pm 11.3 7.4 8.7 84 1.3 NW 19 22 10 12 1014.8 1014.8 0.0
28/07:00pm 10.5 7.3 8.3 86 1.1 NW 15 20 8 11 1014.6 - 0.0
28/06:30pm 9.4 6.7 7.3 87 1.0 NW 11 13 6 7 1014.5 1014.5 0.0
28/06:00pm 10.9 8.0 8.0 82 1.4 NW 13 17 7 9 1014.4 1014.4 0.0
28/05:30pm 11.2 8.2 7.7 79 1.7 NW 13 15 7 8 1014.3 1014.3 0.0
28/05:00pm 13.3 10.1 8.4 72 2.4 NW 15 19 8 10 1013.8 - 0.0
28/04:30pm 15.2 11.0 8.2 63 3.5 NW 20 32 11 17 1013.6 1013.6 0.0
28/04:00pm 16.0 12.2 9.7 66 3.3 NW 20 28 11 15 1013.8 - 0.0
28/03:30pm 16.6 12.2 9.1 61 3.9 NW 22 30 12 16 1014.0 1014.0 0.0
28/03:00pm 16.8 12.4 9.0 60 4.0 NW 22 32 12 17 1014.1 1014.1 0.0
28/02:30pm 16.8 12.2 8.2 57 4.4 WNW 22 35 12 19 1014.1 1014.1 0.0
28/02:00pm 17.1 13.0 10.2 64 3.7 WNW 22 30 12 16 1014.5 - 0.0
28/01:30pm 16.7 11.2 9.1 61 3.9 WNW 28 39 15 21 1014.7 1014.7 0.0
28/01:00pm 16.6 11.7 10.0 65 3.5 W 26 37 14 20 1015.0 - 0.0
28/12:30pm 16.3 11.2 10.6 69 3.0 WNW 28 33 15 18 1015.5 1015.5 0.0
28/12:00pm 16.4 12.3 11.3 72 2.7 NW 24 32 13 17 1015.9 1015.9 0.0
28/11:30am 15.9 11.2 10.7 71 2.8 NW 26 33 14 18 1016.3 1016.4 0.0
28/11:00am 15.3 10.6 10.7 74 2.4 NW 26 37 14 20 1016.6 - 0.0
28/10:30am 14.8 10.8 10.6 76 2.2 NNW 22 32 12 17 1016.9 1017.0 0.0
28/10:00am 14.4 10.8 10.4 77 2.1 NNW 20 30 11 16 1017.1 - 0.0
28/09:30am 13.8 10.2 9.8 77 2.1 NW 19 26 10 14 1017.2 1017.3 0.0
28/09:00am 12.4 9.4 9.1 80 1.7 NNW 15 19 8 10 1017.1 1017.2 0.2
28/08:30am 10.2 7.2 7.8 85 1.2 NNW 13 15 7 8 1016.9 1017.0 0.2
28/08:00am 9.3 6.5 6.9 85 1.1 NNW 11 13 6 7 1016.6 - 0.2
28/07:30am 8.2 5.3 6.3 88 0.9 NW 11 13 6 7 1016.6 1016.7 0.2
28/07:00am 6.6 3.4 5.1 90 0.7 NNW 11 13 6 7 1016.4 - 0.2
28/06:30am 5.9 2.5 4.1 88 0.8 NNW 11 15 6 8 1016.2 1016.3 0.2
28/06:00am 6.3 3.0 4.3 87 0.9 NNW 11 13 6 7 1016.1 1016.2 0.2
28/05:30am 6.4 3.8 4.4 87 0.9 NNW 7 11 4 6 1016.1 1016.2 0.2
28/05:00am 6.8 3.5 4.5 85 1.0 NNW 11 13 6 7 1016.2 - 0.2
28/04:30am 7.1 3.5 4.8 85 1.0 NNW 13 17 7 9 1016.2 1016.3 0.2
28/04:00am 7.4 3.4 4.9 84 1.1 N 15 17 8 9 1016.1 - 0.2
28/03:30am 7.3 3.3 5.0 85 1.0 N 15 17 8 9 1016.2 1016.3 0.2
28/03:00am 6.2 2.5 4.4 88 0.8 NNW 13 15 7 8 1016.5 1016.6 0.2
28/02:30am 6.0 2.6 3.8 86 0.9 NNW 11 13 6 7 1016.7 1016.8 0.2
28/02:00am 7.4 4.1 4.7 83 1.2 NNW 11 15 6 8 1016.9 - 0.2
28/01:30am 8.4 4.8 5.2 80 1.4 NNW 13 15 7 8 1016.9 1017.0 0.2
28/01:00am 9.1 5.7 5.7 79 1.5 N 13 17 7 9 1016.8 - 0.2
28/12:30am 9.1 5.7 5.7 79 1.5 NNW 13 15 7 8 1017.0 1017.1 0.2
28/12:00am 10.3 6.6 6.1 75 1.9 N 15 20 8 11 1017.4 1017.5 0.2
 
Date/Time
CST
Temp
°C
App
Temp
°C
Dew
Point
Rel
Hum
%
Delta-T
°C
Wind Press
QNH
hPa
Press
MSL
hPa
Rain
since 9 am
mm
Dir
 
Spd
km/h
Gust
km/h
Spd
kts
Gust
kts
27/11:30pm 10.4 6.6 6.0 74 2.0 N 15 19 8 10 1017.8 1017.9 0.0
27/11:00pm 10.8 7.1 6.2 73 2.1 N 15 19 8 10 1018.1 - 0.0

Other Formats:

Comma delimited format used in spreadsheet applications
http://www.bom.gov.au/fwo/IDS60801/IDS60801.95815.axf

JavaScript Object Notation format (JSON) in row-major order
http://www.bom.gov.au/fwo/IDS60801/IDS60801.95815.json